CYUL/YUL METAR and TAF weather

Enter ICAO airport designator
Station Type Date Time Source
CYUL METAR 2018/01/21 12:00 UTC NOAA

CYUL 211200Z 30003KT 15SM BKN035 OVC055 M01/M08 A3010 RMK SC5SC3 SLP197


Station Type Date Time Source
CYUL Decoded METAR 2018/01/21 12:00 UTC NOAA

Montreal / Pierre Elliot Trudeau International Airport, Que, Canada (CYUL) 45-28N 073-45W 36M
Jan 21, 2018 - 07:00 AM EST / 2018.01.21 1200 UTC
Wind: from the WNW (300 degrees) at 3 MPH (3 KT):0
Visibility: 15 mile(s):0
Sky conditions: overcast
Temperature: 30 F (-1 C)
Dew Point: 17 F (-8 C)
Relative Humidity: 58%
Pressure (altimeter): 30.1 in. Hg (1019 hPa)
ob: CYUL 211200Z 30003KT 15SM BKN035 OVC055 M01/M08 A3010 RMK SC5SC3 SLP197
cycle: 12

Station Type Date Time Source
CYUL TAF 2018/01/21 12:42 UTC NOAA

TAF CYUL 211138Z 2112/2212 33005KT P6SM BKN050
FM211500 09005KT P6SM BKN030
TEMPO 2115/2118 BKN020
FM211800 08005KT P6SM OVC015
FM212100 08005KT 4SM -SN BKN007 OVC015
FM220300 05005KT 1SM -SN OVC007
FM220600 05010KT 3/4SM -SN VV007
FM220900 05010G20KT 2SM -SN OVC010
RMK NXT FCST BY 211500Z


Example: see airport list